sensor_id;sensor_type;location;lat;lon;timestamp;pressure;altitude;pressure_sealevel;temperature;humidity
35121;BME280;21297;52.008;4.576;2023-07-29T00:02:26;52119.00;;;-143.47;90.78
35121;BME280;21297;52.008;4.576;2023-07-29T00:05:15;52172.16;;;-143.47;90.19
35121;BME280;21297;52.008;4.576;2023-07-29T00:08:00;52215.44;;;-143.47;88.46
35121;BME280;21297;52.008;4.576;2023-07-29T00:10:46;52231.19;;;-143.47;87.10
35121;BME280;21297;52.008;4.576;2023-07-29T00:13:31;52207.56;;;-143.47;87.51
35121;BME280;21297;52.008;4.576;2023-07-29T00:16:17;52095.38;;;-143.47;89.14
35121;BME280;21297;52.008;4.576;2023-07-29T00:19:02;52113.09;;;-143.47;90.09
35121;BME280;21297;52.008;4.576;2023-07-29T00:21:48;52089.50;;;-143.47;89.43
35121;BME280;21297;52.008;4.576;2023-07-29T00:24:33;51991.09;;;-143.47;90.60
35121;BME280;21297;52.008;4.576;2023-07-29T00:27:19;52034.38;;;-143.47;90.76
35121;BME280;21297;52.008;4.576;2023-07-29T00:30:05;51949.75;;;-143.47;92.18
35121;BME280;21297;52.008;4.576;2023-07-29T00:32:50;51943.84;;;-143.47;92.87
35121;BME280;21297;52.008;4.576;2023-07-29T00:35:36;51959.59;;;-143.47;92.90
35121;BME280;21297;52.008;4.576;2023-07-29T00:38:21;51961.56;;;-143.47;93.37
35121;BME280;21297;52.008;4.576;2023-07-29T00:41:07;51928.13;;;-143.47;93.44
35121;BME280;21297;52.008;4.576;2023-07-29T00:43:53;51896.63;;;-143.47;94.09
35121;BME280;21297;52.008;4.576;2023-07-29T00:46:38;51855.31;;;-143.47;94.86
35121;BME280;21297;52.008;4.576;2023-07-29T00:49:25;51835.63;;;-143.47;94.36
35121;BME280;21297;52.008;4.576;2023-07-29T00:52:11;51845.47;;;-143.47;94.58
35121;BME280;21297;52.008;4.576;2023-07-29T00:54:57;51837.59;;;-143.47;95.00
35121;BME280;21297;52.008;4.576;2023-07-29T00:57:43;51857.28;;;-143.47;95.14
35121;BME280;21297;52.008;4.576;2023-07-29T01:00:33;51892.69;;;-143.47;95.68
35121;BME280;21297;52.008;4.576;2023-07-29T01:03:19;51880.88;;;-143.47;96.17
35121;BME280;21297;52.008;4.576;2023-07-29T01:09:03;51888.75;;;-143.47;97.51
35121;BME280;21297;52.008;4.576;2023-07-29T01:12:08;51949.75;;;-143.47;97.58
35121;BME280;21297;52.008;4.576;2023-07-29T01:18:05;51939.91;;;-143.47;98.45
35121;BME280;21297;52.008;4.576;2023-07-29T01:20:53;51975.34;;;-143.47;98.69
35121;BME280;21297;52.008;4.576;2023-07-29T01:23:38;51987.16;;;-143.47;98.03
35121;BME280;21297;52.008;4.576;2023-07-29T01:26:24;52040.28;;;-143.47;97.39
35121;BME280;21297;52.008;4.576;2023-07-29T01:29:09;51951.72;;;-143.47;97.54
35121;BME280;21297;52.008;4.576;2023-07-29T01:31:56;51993.06;;;-143.47;95.44
35121;BME280;21297;52.008;4.576;2023-07-29T01:37:56;51998.97;;;-143.47;93.13
35121;BME280;21297;52.008;4.576;2023-07-29T01:40:45;51991.09;;;-143.47;90.98
35121;BME280;21297;52.008;4.576;2023-07-29T01:43:31;51971.41;;;-143.47;90.50
35121;BME280;21297;52.008;4.576;2023-07-29T01:46:17;52008.81;;;-143.47;89.36
35121;BME280;21297;52.008;4.576;2023-07-29T01:49:03;51973.38;;;-143.47;89.20
35121;BME280;21297;52.008;4.576;2023-07-29T01:51:48;52002.91;;;-143.47;88.26
35121;BME280;21297;52.008;4.576;2023-07-29T01:54:34;51957.63;;;-143.47;88.47
35121;BME280;21297;52.008;4.576;2023-07-29T01:57:19;51947.78;;;-143.47;88.93
35121;BME280;21297;52.008;4.576;2023-07-29T02:00:05;51869.06;;;-143.47;89.29
35121;BME280;21297;52.008;4.576;2023-07-29T02:02:51;51894.66;;;-143.47;89.62
35121;BME280;21297;52.008;4.576;2023-07-29T02:05:36;51871.03;;;-143.47;89.97
35121;BME280;21297;52.008;4.576;2023-07-29T02:08:22;51812.00;;;-143.47;89.71
35121;BME280;21297;52.008;4.576;2023-07-29T02:11:07;51806.09;;;-143.47;90.24
35121;BME280;21297;52.008;4.576;2023-07-29T02:13:54;51831.69;;;-143.47;90.27
35121;BME280;21297;52.008;4.576;2023-07-29T02:16:39;51825.78;;;-143.47;90.07
35121;BME280;21297;52.008;4.576;2023-07-29T02:19:25;51770.69;;;-143.47;90.57
35121;BME280;21297;52.008;4.576;2023-07-29T02:22:12;51812.00;;;-143.47;89.80
35121;BME280;21297;52.008;4.576;2023-07-29T02:24:58;51782.50;;;-143.47;91.20
35121;BME280;21297;52.008;4.576;2023-07-29T02:27:44;51774.63;;;-143.47;91.88
35121;BME280;21297;52.008;4.576;2023-07-29T02:30:29;51772.66;;;-143.47;92.30
35121;BME280;21297;52.008;4.576;2023-07-29T02:33:15;51758.88;;;-143.47;92.49
35121;BME280;21297;52.008;4.576;2023-07-29T02:36:00;51729.38;;;-143.47;92.46
35121;BME280;21297;52.008;4.576;2023-07-29T02:38:46;51747.06;;;-143.47;92.76
35121;BME280;21297;52.008;4.576;2023-07-29T02:41:31;51717.56;;;-143.47;92.88
35121;BME280;21297;52.008;4.576;2023-07-29T02:44:17;51778.56;;;-143.47;93.25
35121;BME280;21297;52.008;4.576;2023-07-29T02:47:03;51754.94;;;-143.47;93.59
35121;BME280;21297;52.008;4.576;2023-07-29T02:49:48;51699.84;;;-143.47;93.88
35121;BME280;21297;52.008;4.576;2023-07-29T02:52:35;51721.50;;;-143.47;94.19
35121;BME280;21297;52.008;4.576;2023-07-29T02:55:20;51731.31;;;-143.47;94.35
35121;BME280;21297;52.008;4.576;2023-07-29T02:58:06;51703.78;;;-143.47;94.63
35121;BME280;21297;52.008;4.576;2023-07-29T03:00:52;51713.63;;;-143.47;95.00
35121;BME280;21297;52.008;4.576;2023-07-29T03:03:37;51715.59;;;-143.47;95.23
35121;BME280;21297;52.008;4.576;2023-07-29T03:06:23;51705.75;;;-143.47;95.36
35121;BME280;21297;52.008;4.576;2023-07-29T03:09:09;51684.09;;;-143.47;95.87
35121;BME280;21297;52.008;4.576;2023-07-29T03:11:54;51733.28;;;-143.47;95.07
35121;BME280;21297;52.008;4.576;2023-07-29T03:14:40;51749.03;;;-143.47;94.41
35121;BME280;21297;52.008;4.576;2023-07-29T03:17:26;51760.84;;;-143.47;94.37
35121;BME280;21297;52.008;4.576;2023-07-29T03:20:12;51782.50;;;-143.47;94.32
35121;BME280;21297;52.008;4.576;2023-07-29T03:22:58;51806.09;;;-143.47;93.57
35121;BME280;21297;52.008;4.576;2023-07-29T03:25:43;51766.75;;;-143.47;93.31
35121;BME280;21297;52.008;4.576;2023-07-29T03:28:31;51778.56;;;-143.47;93.63
35121;BME280;21297;52.008;4.576;2023-07-29T03:31:17;51756.91;;;-143.47;93.52
35121;BME280;21297;52.008;4.576;2023-07-29T03:34:02;51812.00;;;-143.47;93.82
35121;BME280;21297;52.008;4.576;2023-07-29T03:36:48;51798.22;;;-143.47;93.13
35121;BME280;21297;52.008;4.576;2023-07-29T03:39:34;51841.53;;;-143.47;93.82
35121;BME280;21297;52.008;4.576;2023-07-29T03:42:19;51851.38;;;-143.47;92.91
35121;BME280;21297;52.008;4.576;2023-07-29T03:45:05;51902.53;;;-143.47;92.67
35121;BME280;21297;52.008;4.576;2023-07-29T03:47:51;51934.03;;;-143.47;92.26
35121;BME280;21297;52.008;4.576;2023-07-29T03:50:36;51926.16;;;-143.47;91.66
35121;BME280;21297;52.008;4.576;2023-07-29T03:53:22;51896.63;;;-143.47;92.30
35121;BME280;21297;52.008;4.576;2023-07-29T03:56:07;51888.75;;;-143.47;92.57
35121;BME280;21297;52.008;4.576;2023-07-29T03:58:53;51916.31;;;-143.47;93.10
35121;BME280;21297;52.008;4.576;2023-07-29T04:01:38;51947.78;;;-143.47;91.73
35121;BME280;21297;52.008;4.576;2023-07-29T04:04:24;51955.66;;;-143.47;91.57
35121;BME280;21297;52.008;4.576;2023-07-29T04:07:10;51967.47;;;-143.47;91.01
35121;BME280;21297;52.008;4.576;2023-07-29T04:09:56;52002.91;;;-143.47;90.10
35121;BME280;21297;52.008;4.576;2023-07-29T04:12:42;51971.41;;;-143.47;90.49
35121;BME280;21297;52.008;4.576;2023-07-29T04:15:28;51943.84;;;-143.47;90.67
35121;BME280;21297;52.008;4.576;2023-07-29T04:18:14;52004.88;;;-143.47;89.93
35121;BME280;21297;52.008;4.576;2023-07-29T04:20:59;51987.16;;;-143.47;88.90
35121;BME280;21297;52.008;4.576;2023-07-29T04:23:45;52018.63;;;-143.47;89.29
35121;BME280;21297;52.008;4.576;2023-07-29T04:26:30;52026.50;;;-143.47;88.38
35121;BME280;21297;52.008;4.576;2023-07-29T04:29:16;52036.34;;;-143.47;88.83
35121;BME280;21297;52.008;4.576;2023-07-29T04:32:02;52000.94;;;-143.47;89.20
35121;BME280;21297;52.008;4.576;2023-07-29T04:34:48;52040.28;;;-143.47;89.60
35121;BME280;21297;52.008;4.576;2023-07-29T04:37:33;52040.28;;;-143.47;89.08
35121;BME280;21297;52.008;4.576;2023-07-29T04:40:19;52107.19;;;-143.47;89.04
35121;BME280;21297;52.008;4.576;2023-07-29T04:43:04;52101.28;;;-143.47;88.14
35121;BME280;21297;52.008;4.576;2023-07-29T04:45:50;52105.22;;;-143.47;88.36
35121;BME280;21297;52.008;4.576;2023-07-29T04:48:35;52140.66;;;-143.47;87.99
35121;BME280;21297;52.008;4.576;2023-07-29T04:51:21;52113.09;;;-143.47;88.46
35121;BME280;21297;52.008;4.576;2023-07-29T04:54:07;52148.53;;;-143.47;87.75
35121;BME280;21297;52.008;4.576;2023-07-29T04:56:52;52160.34;;;-143.47;88.22
35121;BME280;21297;52.008;4.576;2023-07-29T04:59:38;52148.53;;;-143.47;88.10
35121;BME280;21297;52.008;4.576;2023-07-29T05:02:23;52181.97;;;-143.47;87.68
35121;BME280;21297;52.008;4.576;2023-07-29T05:05:09;52193.78;;;-143.47;87.59
35121;BME280;21297;52.008;4.576;2023-07-29T05:07:54;52152.47;;;-143.47;87.93
35121;BME280;21297;52.008;4.576;2023-07-29T05:10:40;52180.00;;;-143.47;88.02
35121;BME280;21297;52.008;4.576;2023-07-29T05:13:25;52197.72;;;-143.47;87.66
35121;BME280;21297;52.008;4.576;2023-07-29T05:16:11;52205.59;;;-143.47;87.40
35121;BME280;21297;52.008;4.576;2023-07-29T05:18:57;52201.66;;;-143.47;87.70
35121;BME280;21297;52.008;4.576;2023-07-29T05:21:42;52219.38;;;-143.47;87.99
35121;BME280;21297;52.008;4.576;2023-07-29T05:24:28;52248.91;;;-143.47;88.26
35121;BME280;21297;52.008;4.576;2023-07-29T05:27:13;52225.28;;;-143.47;87.76
35121;BME280;21297;52.008;4.576;2023-07-29T05:29:59;52239.06;;;-143.47;89.01
35121;BME280;21297;52.008;4.576;2023-07-29T05:32:44;52266.59;;;-143.47;88.43
35121;BME280;21297;52.008;4.576;2023-07-29T05:35:30;52246.94;;;-143.47;89.05
35121;BME280;21297;52.008;4.576;2023-07-29T05:38:15;52264.63;;;-143.47;89.88
35121;BME280;21297;52.008;4.576;2023-07-29T05:41:01;52288.25;;;-143.47;90.28
35121;BME280;21297;52.008;4.576;2023-07-29T05:43:46;52325.66;;;-143.47;88.77
35121;BME280;21297;52.008;4.576;2023-07-29T05:46:32;52390.59;;;-143.47;86.64
35121;BME280;21297;52.008;4.576;2023-07-29T05:49:18;52384.69;;;-143.47;85.63
35121;BME280;21297;52.008;4.576;2023-07-29T05:52:03;52424.06;;;-143.47;85.48
35121;BME280;21297;52.008;4.576;2023-07-29T05:54:49;52355.19;;;-143.47;86.32
35121;BME280;21297;52.008;4.576;2023-07-29T05:57:35;52335.50;;;-143.47;86.92
35121;BME280;21297;52.008;4.576;2023-07-29T06:00:20;52380.75;;;-143.47;87.06
35121;BME280;21297;52.008;4.576;2023-07-29T06:03:06;52396.50;;;-143.47;87.60
35121;BME280;21297;52.008;4.576;2023-07-29T06:05:51;52388.63;;;-143.47;87.53
35121;BME280;21297;52.008;4.576;2023-07-29T06:08:37;52390.59;;;-143.47;87.87
35121;BME280;21297;52.008;4.576;2023-07-29T06:11:23;52481.13;;;-143.47;87.24
35121;BME280;21297;52.008;4.576;2023-07-29T06:14:08;52414.22;;;-143.47;87.53
35121;BME280;21297;52.008;4.576;2023-07-29T06:16:55;52467.34;;;-143.47;86.59
35121;BME280;21297;52.008;4.576;2023-07-29T06:19:41;52490.97;;;-143.47;86.50
35121;BME280;21297;52.008;4.576;2023-07-29T06:22:28;52467.34;;;-143.47;86.02
35121;BME280;21297;52.008;4.576;2023-07-29T06:25:14;52445.72;;;-143.47;86.45
35121;BME280;21297;52.008;4.576;2023-07-29T06:27:59;52498.84;;;-143.47;86.83
35121;BME280;21297;52.008;4.576;2023-07-29T06:30:45;52548.06;;;-143.47;85.65
35121;BME280;21297;52.008;4.576;2023-07-29T06:33:30;52601.19;;;-143.47;83.82
35121;BME280;21297;52.008;4.576;2023-07-29T06:36:16;52636.63;;;-143.47;84.37
35121;BME280;21297;52.008;4.576;2023-07-29T06:39:02;52577.56;;;-143.47;84.51
35121;BME280;21297;52.008;4.576;2023-07-29T06:41:47;52638.59;;;-143.47;84.53
35121;BME280;21297;52.008;4.576;2023-07-29T06:44:33;52742.91;;;-143.47;84.25
35121;BME280;21297;52.008;4.576;2023-07-29T06:47:18;52784.25;;;-143.47;83.92
35121;BME280;21297;52.008;4.576;2023-07-29T06:50:04;52833.47;;;-143.47;82.69
35121;BME280;21297;52.008;4.576;2023-07-29T06:52:50;52876.75;;;-143.47;79.90
35121;BME280;21297;52.008;4.576;2023-07-29T06:55:35;52931.88;;;-143.47;79.34
35121;BME280;21297;52.008;4.576;2023-07-29T06:58:21;52994.88;;;-143.47;79.36
35121;BME280;21297;52.008;4.576;2023-07-29T07:01:06;52985.03;;;-143.47;78.86
35121;BME280;21297;52.008;4.576;2023-07-29T07:03:52;52924.00;;;-143.47;78.55
35121;BME280;21297;52.008;4.576;2023-07-29T07:06:39;52864.94;;;-143.47;78.77
35121;BME280;21297;52.008;4.576;2023-07-29T07:09:25;52859.03;;;-143.47;79.48
35121;BME280;21297;52.008;4.576;2023-07-29T07:12:10;52900.38;;;-143.47;80.34
35121;BME280;21297;52.008;4.576;2023-07-29T07:14:56;52870.84;;;-143.47;77.34
35121;BME280;21297;52.008;4.576;2023-07-29T07:17:41;52908.25;;;-143.47;76.35
35121;BME280;21297;52.008;4.576;2023-07-29T07:20:27;52904.31;;;-143.47;75.35
35121;BME280;21297;52.008;4.576;2023-07-29T07:23:12;52884.63;;;-143.47;74.86
35121;BME280;21297;52.008;4.576;2023-07-29T07:25:58;52888.56;;;-143.47;76.44
35121;BME280;21297;52.008;4.576;2023-07-29T07:28:44;52994.88;;;-143.47;76.07
35121;BME280;21297;52.008;4.576;2023-07-29T07:31:32;53065.72;;;-143.47;73.84
35121;BME280;21297;52.008;4.576;2023-07-29T07:34:18;53008.66;;;-143.47;72.41
35121;BME280;21297;52.008;4.576;2023-07-29T07:37:04;53187.78;;;-143.47;72.23
35121;BME280;21297;52.008;4.576;2023-07-29T07:39:50;53101.16;;;-143.47;68.76
35121;BME280;21297;52.008;4.576;2023-07-29T07:42:36;53107.06;;;-143.47;70.41
35121;BME280;21297;52.008;4.576;2023-07-29T07:45:21;53185.81;;;-143.47;70.21
35121;BME280;21297;52.008;4.576;2023-07-29T07:48:07;53172.03;;;-143.47;68.38
35121;BME280;21297;52.008;4.576;2023-07-29T07:50:55;53055.88;;;-143.47;66.69
35121;BME280;21297;52.008;4.576;2023-07-29T07:53:41;52837.41;;;-143.47;66.36
35121;BME280;21297;52.008;4.576;2023-07-29T07:56:27;52798.03;;;-143.47;68.01
35121;BME280;21297;52.008;4.576;2023-07-29T07:59:12;52880.69;;;-143.47;70.17
35121;BME280;21297;52.008;4.576;2023-07-29T08:01:58;53002.75;;;-143.47;69.32
35121;BME280;21297;52.008;4.576;2023-07-29T08:04:43;53107.06;;;-143.47;69.18
35121;BME280;21297;52.008;4.576;2023-07-29T08:07:29;53233.06;;;-143.47;66.79
35121;BME280;21297;52.008;4.576;2023-07-29T08:10:14;53284.25;;;-143.47;65.58
35121;BME280;21297;52.008;4.576;2023-07-29T08:13:00;53329.50;;;-143.47;65.60
35121;BME280;21297;52.008;4.576;2023-07-29T08:15:47;53323.59;;;-143.47;65.53
35121;BME280;21297;52.008;4.576;2023-07-29T08:18:32;53372.81;;;-143.47;64.71
35121;BME280;21297;52.008;4.576;2023-07-29T08:21:18;53429.91;;;-143.47;63.91
35121;BME280;21297;52.008;4.576;2023-07-29T08:24:03;53453.53;;;-143.47;62.72
35121;BME280;21297;52.008;4.576;2023-07-29T08:26:49;53506.69;;;-143.47;62.14
35121;BME280;21297;52.008;4.576;2023-07-29T08:29:35;53522.44;;;-143.47;62.06
35121;BME280;21297;52.008;4.576;2023-07-29T08:32:20;53514.56;;;-143.47;62.46
35121;BME280;21297;52.008;4.576;2023-07-29T08:35:06;53453.53;;;-143.47;60.66
35121;BME280;21297;52.008;4.576;2023-07-29T08:37:52;53416.13;;;-143.47;62.41
35121;BME280;21297;52.008;4.576;2023-07-29T08:40:41;53207.47;;;-143.47;62.62
35121;BME280;21297;52.008;4.576;2023-07-29T08:43:30;53073.59;;;-143.47;65.14
35121;BME280;21297;52.008;4.576;2023-07-29T08:46:17;53049.97;;;-143.47;66.12
35121;BME280;21297;52.008;4.576;2023-07-29T08:49:04;53016.53;;;-143.47;67.51
35121;BME280;21297;52.008;4.576;2023-07-29T08:51:50;53061.78;;;-143.47;68.28
35121;BME280;21297;52.008;4.576;2023-07-29T08:54:38;53120.84;;;-143.47;69.11
35121;BME280;21297;52.008;4.576;2023-07-29T08:57:24;53020.47;;;-143.47;68.62
35121;BME280;21297;52.008;4.576;2023-07-29T09:00:11;53030.28;;;-143.47;69.11
35121;BME280;21297;52.008;4.576;2023-07-29T09:02:58;53032.25;;;-143.47;70.42
35121;BME280;21297;52.008;4.576;2023-07-29T09:05:48;53030.28;;;-143.47;70.45
35121;BME280;21297;52.008;4.576;2023-07-29T09:08:33;52931.88;;;-143.47;70.50
35121;BME280;21297;52.008;4.576;2023-07-29T09:11:19;52855.09;;;-143.47;71.63
35121;BME280;21297;52.008;4.576;2023-07-29T09:14:05;52823.63;;;-143.47;72.60
35121;BME280;21297;52.008;4.576;2023-07-29T09:16:51;52803.94;;;-143.47;74.16
35121;BME280;21297;52.008;4.576;2023-07-29T09:19:37;52754.72;;;-143.47;73.34
35121;BME280;21297;52.008;4.576;2023-07-29T09:22:22;52833.47;;;-143.47;71.47
35121;BME280;21297;52.008;4.576;2023-07-29T09:25:08;52888.56;;;-143.47;70.62
35121;BME280;21297;52.008;4.576;2023-07-29T09:27:58;52943.69;;;-143.47;70.23
35121;BME280;21297;52.008;4.576;2023-07-29T09:30:45;53036.19;;;-143.47;69.32
35121;BME280;21297;52.008;4.576;2023-07-29T09:33:34;53081.47;;;-143.47;69.73
35121;BME280;21297;52.008;4.576;2023-07-29T09:36:23;53124.78;;;-143.47;67.11
35121;BME280;21297;52.008;4.576;2023-07-29T09:39:12;53111.00;;;-143.47;67.79
35121;BME280;21297;52.008;4.576;2023-07-29T09:41:58;53197.63;;;-143.47;67.44
35121;BME280;21297;52.008;4.576;2023-07-29T09:44:44;53211.41;;;-143.47;66.94
35121;BME280;21297;52.008;4.576;2023-07-29T09:47:29;53223.22;;;-143.47;67.08
35121;BME280;21297;52.008;4.576;2023-07-29T09:50:15;53130.69;;;-143.47;68.58
35121;BME280;21297;52.008;4.576;2023-07-29T09:53:02;53160.22;;;-143.47;68.46
35121;BME280;21297;52.008;4.576;2023-07-29T09:55:48;53199.59;;;-143.47;69.29
35121;BME280;21297;52.008;4.576;2023-07-29T09:58:36;53160.22;;;-143.47;66.74
35121;BME280;21297;52.008;4.576;2023-07-29T10:01:23;53164.16;;;-143.47;67.96
35121;BME280;21297;52.008;4.576;2023-07-29T10:04:09;53282.28;;;-143.47;68.87
35121;BME280;21297;52.008;4.576;2023-07-29T10:06:56;53337.38;;;-143.47;66.95
35121;BME280;21297;52.008;4.576;2023-07-29T10:09:42;53256.69;;;-143.47;67.20
35121;BME280;21297;52.008;4.576;2023-07-29T10:12:30;53225.19;;;-143.47;67.98
35121;BME280;21297;52.008;4.576;2023-07-29T10:15:16;53148.41;;;-143.47;68.56
35121;BME280;21297;52.008;4.576;2023-07-29T10:18:02;53136.59;;;-143.47;70.33
35121;BME280;21297;52.008;4.576;2023-07-29T10:20:51;53002.75;;;-143.47;72.41
35121;BME280;21297;52.008;4.576;2023-07-29T10:23:37;53026.34;;;-143.47;73.33
35121;BME280;21297;52.008;4.576;2023-07-29T10:26:24;52864.94;;;-143.47;74.50
35121;BME280;21297;52.008;4.576;2023-07-29T10:29:10;52800.00;;;-143.47;75.52
35121;BME280;21297;52.008;4.576;2023-07-29T10:31:57;52750.78;;;-143.47;76.18
35121;BME280;21297;52.008;4.576;2023-07-29T10:34:44;52723.22;;;-143.47;78.40
35121;BME280;21297;52.008;4.576;2023-07-29T10:37:29;52662.22;;;-143.47;79.25
35121;BME280;21297;52.008;4.576;2023-07-29T10:40:15;52638.59;;;-143.47;80.53
35121;BME280;21297;52.008;4.576;2023-07-29T10:43:02;52591.34;;;-143.47;80.09
35121;BME280;21297;52.008;4.576;2023-07-29T10:45:48;52553.97;;;-143.47;80.88
35121;BME280;21297;52.008;4.576;2023-07-29T10:51:27;52546.09;;;-143.47;82.39
35121;BME280;21297;52.008;4.576;2023-07-29T10:54:14;52636.63;;;-143.47;83.44
35121;BME280;21297;52.008;4.576;2023-07-29T10:57:00;52711.41;;;-143.47;84.03
35121;BME280;21297;52.008;4.576;2023-07-29T10:59:55;52738.97;;;-143.47;85.40
35121;BME280;21297;52.008;4.576;2023-07-29T11:02:46;52864.94;;;-143.47;84.42
35121;BME280;21297;52.008;4.576;2023-07-29T11:05:52;52906.28;;;-143.47;84.94
35121;BME280;21297;52.008;4.576;2023-07-29T11:08:38;53087.38;;;-143.47;83.93
35121;BME280;21297;52.008;4.576;2023-07-29T11:11:24;53270.47;;;-143.47;83.54
35121;BME280;21297;52.008;4.576;2023-07-29T11:14:09;53715.38;;;-143.47;84.96
35121;BME280;21297;52.008;4.576;2023-07-29T11:16:56;53900.44;;;-143.47;78.96
35121;BME280;21297;52.008;4.576;2023-07-29T11:19:41;54000.88;;;-143.47;74.65
35121;BME280;21297;52.008;4.576;2023-07-29T11:22:27;54124.91;;;-143.47;72.07
35121;BME280;21297;52.008;4.576;2023-07-29T11:25:14;54002.84;;;-143.47;71.06
35121;BME280;21297;52.008;4.576;2023-07-29T11:28:00;53888.63;;;-143.47;71.21
35121;BME280;21297;52.008;4.576;2023-07-29T11:30:45;53721.28;;;-143.47;70.92
35121;BME280;21297;52.008;4.576;2023-07-29T11:33:31;53616.94;;;-143.47;70.28
35121;BME280;21297;52.008;4.576;2023-07-29T11:36:17;53550.00;;;-143.47;72.48
35121;BME280;21297;52.008;4.576;2023-07-29T11:39:09;53433.84;;;-143.47;72.09
35121;BME280;21297;52.008;4.576;2023-07-29T11:41:54;53325.56;;;-143.47;72.07
35121;BME280;21297;52.008;4.576;2023-07-29T11:44:40;53372.81;;;-143.47;74.26
35121;BME280;21297;52.008;4.576;2023-07-29T11:47:26;53345.25;;;-143.47;74.35
35121;BME280;21297;52.008;4.576;2023-07-29T11:50:12;53349.19;;;-143.47;72.83
35121;BME280;21297;52.008;4.576;2023-07-29T11:53:01;53475.19;;;-143.47;75.11
35121;BME280;21297;52.008;4.576;2023-07-29T11:55:50;53424.00;;;-143.47;71.30
35121;BME280;21297;52.008;4.576;2023-07-29T11:58:36;53534.25;;;-143.47;71.26
35121;BME280;21297;52.008;4.576;2023-07-29T12:01:22;53595.28;;;-143.47;70.09
35121;BME280;21297;52.008;4.576;2023-07-29T12:04:08;53670.09;;;-143.47;70.99
35121;BME280;21297;52.008;4.576;2023-07-29T12:06:53;53762.63;;;-143.47;67.12
35121;BME280;21297;52.008;4.576;2023-07-29T12:09:39;53872.88;;;-143.47;67.87
35121;BME280;21297;52.008;4.576;2023-07-29T12:12:25;54067.81;;;-143.47;67.96
35121;BME280;21297;52.008;4.576;2023-07-29T12:15:11;54148.53;;;-143.47;64.49
35121;BME280;21297;52.008;4.576;2023-07-29T12:17:56;53939.81;;;-143.47;63.26
35121;BME280;21297;52.008;4.576;2023-07-29T12:20:42;54032.38;;;-143.47;64.53
35121;BME280;21297;52.008;4.576;2023-07-29T12:23:28;53819.72;;;-143.47;63.18
35121;BME280;21297;52.008;4.576;2023-07-29T12:26:14;53770.50;;;-143.47;64.33
35121;BME280;21297;52.008;4.576;2023-07-29T12:29:10;53672.06;;;-143.47;64.74
35121;BME280;21297;52.008;4.576;2023-07-29T12:31:59;53739.00;;;-143.47;64.90
35121;BME280;21297;52.008;4.576;2023-07-29T12:34:45;53642.53;;;-143.47;64.62
35121;BME280;21297;52.008;4.576;2023-07-29T12:37:31;53565.75;;;-143.47;65.53
35121;BME280;21297;52.008;4.576;2023-07-29T12:40:23;53737.03;;;-143.47;63.50
35121;BME280;21297;52.008;4.576;2023-07-29T12:43:09;53746.88;;;-143.47;62.75
35121;BME280;21297;52.008;4.576;2023-07-29T12:45:56;53949.66;;;-143.47;64.72
35121;BME280;21297;52.008;4.576;2023-07-29T12:48:42;54148.53;;;-143.47;61.77
35121;BME280;21297;52.008;4.576;2023-07-29T12:51:27;54101.28;;;-143.47;60.35
35121;BME280;21297;52.008;4.576;2023-07-29T12:54:13;54038.28;;;-143.47;60.63
35121;BME280;21297;52.008;4.576;2023-07-29T12:56:58;53959.53;;;-143.47;60.58
35121;BME280;21297;52.008;4.576;2023-07-29T12:59:44;53898.47;;;-143.47;60.73
35121;BME280;21297;52.008;4.576;2023-07-29T13:02:29;53859.09;;;-143.47;60.92
35121;BME280;21297;52.008;4.576;2023-07-29T13:05:15;53902.41;;;-143.47;61.36
35121;BME280;21297;52.008;4.576;2023-07-29T13:08:00;53870.91;;;-143.47;59.44
35121;BME280;21297;52.008;4.576;2023-07-29T13:10:46;53896.50;;;-143.47;60.19
35121;BME280;21297;52.008;4.576;2023-07-29T13:13:32;54152.47;;;-143.47;61.25
35121;BME280;21297;52.008;4.576;2023-07-29T13:16:17;54402.56;;;-143.47;58.46
35121;BME280;21297;52.008;4.576;2023-07-29T13:19:03;54508.88;;;-143.47;58.79
35121;BME280;21297;52.008;4.576;2023-07-29T13:21:48;54589.63;;;-143.47;55.81
35121;BME280;21297;52.008;4.576;2023-07-29T13:24:34;54770.78;;;-143.47;56.36
35121;BME280;21297;52.008;4.576;2023-07-29T13:27:19;54766.84;;;-143.47;55.17
35121;BME280;21297;52.008;4.576;2023-07-29T13:30:05;54859.41;;;-143.47;55.52
35121;BME280;21297;52.008;4.576;2023-07-29T13:32:51;54995.31;;;-143.47;55.25
35121;BME280;21297;52.008;4.576;2023-07-29T13:35:36;55115.44;;;-143.47;52.48
35121;BME280;21297;52.008;4.576;2023-07-29T13:38:22;55170.59;;;-143.47;51.57
35121;BME280;21297;52.008;4.576;2023-07-29T13:41:07;54928.34;;;-143.47;49.76
35121;BME280;21297;52.008;4.576;2023-07-29T13:43:53;54522.66;;;-143.47;50.76
35121;BME280;21297;52.008;4.576;2023-07-29T13:46:38;54392.69;;;-143.47;52.00
35121;BME280;21297;52.008;4.576;2023-07-29T13:49:24;54408.47;;;-143.47;51.86
35121;BME280;21297;52.008;4.576;2023-07-29T13:52:10;54603.41;;;-143.47;52.69
35121;BME280;21297;52.008;4.576;2023-07-29T13:54:55;54652.63;;;-143.47;51.24
35121;BME280;21297;52.008;4.576;2023-07-29T13:57:41;54424.22;;;-143.47;51.09
35121;BME280;21297;52.008;4.576;2023-07-29T14:00:26;54367.09;;;-143.47;52.81
35121;BME280;21297;52.008;4.576;2023-07-29T14:03:12;54219.41;;;-143.47;52.55
35121;BME280;21297;52.008;4.576;2023-07-29T14:05:57;54158.38;;;-143.47;53.65
35121;BME280;21297;52.008;4.576;2023-07-29T14:08:43;54319.84;;;-143.47;52.26
35121;BME280;21297;52.008;4.576;2023-07-29T14:11:29;54327.72;;;-143.47;53.78
35121;BME280;21297;52.008;4.576;2023-07-29T14:14:14;54256.84;;;-143.47;52.63
35121;BME280;21297;52.008;4.576;2023-07-29T14:17:00;54057.97;;;-143.47;53.09
35121;BME280;21297;52.008;4.576;2023-07-29T14:19:45;53908.31;;;-143.47;53.41
35121;BME280;21297;52.008;4.576;2023-07-29T14:22:31;53859.09;;;-143.47;53.89
35121;BME280;21297;52.008;4.576;2023-07-29T14:25:18;53979.22;;;-143.47;54.72
35121;BME280;21297;52.008;4.576;2023-07-29T14:28:04;53973.31;;;-143.47;52.76
35121;BME280;21297;52.008;4.576;2023-07-29T14:30:49;54042.22;;;-143.47;53.84